sensor_id;sensor_type;location;lat;lon;timestamp;pressure;altitude;pressure_sealevel;temperature;humidity
37892;BME280;45797;47.466;9.486;2022-10-16T00:03:04;95800.50;;;16.97;70.33
37892;BME280;45797;47.466;9.486;2022-10-16T00:08:04;95802.00;;;16.99;71.01
37892;BME280;45797;47.466;9.486;2022-10-16T00:13:04;95804.09;;;16.96;70.82
37892;BME280;45797;47.466;9.486;2022-10-16T00:18:05;95794.38;;;16.96;70.78
37892;BME280;45797;47.466;9.486;2022-10-16T00:23:23;95798.28;;;16.92;70.84
37892;BME280;45797;47.466;9.486;2022-10-16T00:28:49;95816.13;;;16.90;70.68
37892;BME280;45797;47.466;9.486;2022-10-16T00:33:50;95814.84;;;16.94;70.69
37892;BME280;45797;47.466;9.486;2022-10-16T00:38:54;95809.94;;;16.99;70.45
37892;BME280;45797;47.466;9.486;2022-10-16T00:43:57;95811.63;;;17.00;70.51
37892;BME280;45797;47.466;9.486;2022-10-16T00:49:32;95807.63;;;16.96;70.89
37892;BME280;45797;47.466;9.486;2022-10-16T00:54:34;95809.50;;;17.04;70.80
37892;BME280;45797;47.466;9.486;2022-10-16T00:59:40;95795.16;;;17.06;70.64
37892;BME280;45797;47.466;9.486;2022-10-16T01:04:53;95802.38;;;17.04;70.74
37892;BME280;45797;47.466;9.486;2022-10-16T01:15:10;95807.91;;;17.11;71.07
37892;BME280;45797;47.466;9.486;2022-10-16T01:31:35;95796.88;;;17.16;70.47
37892;BME280;45797;47.466;9.486;2022-10-16T01:36:39;95799.53;;;17.16;70.45
37892;BME280;45797;47.466;9.486;2022-10-16T01:41:55;95795.34;;;17.13;70.59
37892;BME280;45797;47.466;9.486;2022-10-16T01:46:59;95802.47;;;17.12;70.73
37892;BME280;45797;47.466;9.486;2022-10-16T01:52:13;95823.88;;;17.01;70.87
37892;BME280;45797;47.466;9.486;2022-10-16T01:57:24;95820.97;;;16.95;70.98
37892;BME280;45797;47.466;9.486;2022-10-16T02:02:45;95826.72;;;16.90;71.05
37892;BME280;45797;47.466;9.486;2022-10-16T02:07:50;95831.56;;;16.95;71.31
37892;BME280;45797;47.466;9.486;2022-10-16T02:13:05;95826.56;;;16.92;70.93
37892;BME280;45797;47.466;9.486;2022-10-16T02:18:09;95826.97;;;16.97;71.10
37892;BME280;45797;47.466;9.486;2022-10-16T02:23:28;95820.84;;;16.96;70.71
37892;BME280;45797;47.466;9.486;2022-10-16T02:28:38;95822.72;;;17.04;70.89
37892;BME280;45797;47.466;9.486;2022-10-16T02:33:47;95820.63;;;17.07;70.45
37892;BME280;45797;47.466;9.486;2022-10-16T02:39:00;95822.13;;;17.10;70.53
37892;BME280;45797;47.466;9.486;2022-10-16T02:44:00;95825.78;;;17.09;70.57
37892;BME280;45797;47.466;9.486;2022-10-16T02:49:27;95821.63;;;17.06;70.58
37892;BME280;45797;47.466;9.486;2022-10-16T02:54:27;95811.69;;;17.08;70.67
37892;BME280;45797;47.466;9.486;2022-10-16T02:59:33;95808.06;;;17.09;70.68
37892;BME280;45797;47.466;9.486;2022-10-16T03:04:42;95810.72;;;17.09;70.33
37892;BME280;45797;47.466;9.486;2022-10-16T03:09:46;95821.31;;;17.09;70.60
37892;BME280;45797;47.466;9.486;2022-10-16T03:14:47;95814.56;;;16.97;71.38
37892;BME280;45797;47.466;9.486;2022-10-16T03:19:48;95818.94;;;16.89;71.15
37892;BME280;45797;47.466;9.486;2022-10-16T03:24:48;95809.91;;;16.81;70.97
37892;BME280;45797;47.466;9.486;2022-10-16T03:29:52;95820.81;;;16.78;71.32
37892;BME280;45797;47.466;9.486;2022-10-16T03:34:54;95820.25;;;16.75;71.59
37892;BME280;45797;47.466;9.486;2022-10-16T03:40:08;95807.34;;;16.72;71.30
37892;BME280;45797;47.466;9.486;2022-10-16T03:45:18;95801.38;;;16.70;71.37
37892;BME280;45797;47.466;9.486;2022-10-16T03:50:26;95803.56;;;16.65;70.86
37892;BME280;45797;47.466;9.486;2022-10-16T03:55:34;95807.78;;;16.57;71.50
37892;BME280;45797;47.466;9.486;2022-10-16T04:00:34;95822.28;;;16.53;71.50
37892;BME280;45797;47.466;9.486;2022-10-16T04:05:59;95829.13;;;16.46;71.48
37892;BME280;45797;47.466;9.486;2022-10-16T04:10:58;95846.66;;;16.47;71.81
37892;BME280;45797;47.466;9.486;2022-10-16T04:16:11;95863.44;;;16.28;71.93
37892;BME280;45797;47.466;9.486;2022-10-16T04:21:12;95885.00;;;16.24;72.33
37892;BME280;45797;47.466;9.486;2022-10-16T04:26:12;95889.88;;;16.19;72.26
37892;BME280;45797;47.466;9.486;2022-10-16T04:31:13;95892.66;;;16.17;72.46
37892;BME280;45797;47.466;9.486;2022-10-16T04:36:17;95881.72;;;16.12;72.54
37892;BME280;45797;47.466;9.486;2022-10-16T04:41:17;95869.88;;;16.07;71.95
37892;BME280;45797;47.466;9.486;2022-10-16T04:46:21;95882.13;;;16.08;72.59
37892;BME280;45797;47.466;9.486;2022-10-16T04:51:23;95873.50;;;16.06;72.47
37892;BME280;45797;47.466;9.486;2022-10-16T04:56:24;95877.81;;;16.07;72.56
37892;BME280;45797;47.466;9.486;2022-10-16T05:01:23;95863.78;;;16.06;72.41
37892;BME280;45797;47.466;9.486;2022-10-16T05:06:25;95874.03;;;16.09;72.42
37892;BME280;45797;47.466;9.486;2022-10-16T05:11:25;95872.38;;;16.08;72.53
37892;BME280;45797;47.466;9.486;2022-10-16T05:16:25;95888.09;;;16.10;72.46
37892;BME280;45797;47.466;9.486;2022-10-16T05:21:31;95888.91;;;16.10;72.20
37892;BME280;45797;47.466;9.486;2022-10-16T05:32:22;95896.31;;;16.07;72.86
37892;BME280;45797;47.466;9.486;2022-10-16T05:37:46;95913.97;;;16.06;72.43
37892;BME280;45797;47.466;9.486;2022-10-16T05:48:43;95924.09;;;16.11;72.50
37892;BME280;45797;47.466;9.486;2022-10-16T05:53:45;95929.13;;;16.14;72.77
37892;BME280;45797;47.466;9.486;2022-10-16T05:58:53;95934.41;;;16.14;72.70
37892;BME280;45797;47.466;9.486;2022-10-16T06:03:53;95929.81;;;16.16;73.07
37892;BME280;45797;47.466;9.486;2022-10-16T06:08:56;95919.69;;;16.21;72.87
37892;BME280;45797;47.466;9.486;2022-10-16T06:14:13;95908.81;;;16.24;72.46
37892;BME280;45797;47.466;9.486;2022-10-16T06:19:22;95915.75;;;16.25;72.98
37892;BME280;45797;47.466;9.486;2022-10-16T06:24:36;95928.28;;;16.23;73.04
37892;BME280;45797;47.466;9.486;2022-10-16T06:29:54;95938.28;;;16.29;72.62
37892;BME280;45797;47.466;9.486;2022-10-16T06:34:55;95947.44;;;16.44;72.98
37892;BME280;45797;47.466;9.486;2022-10-16T06:39:59;95955.06;;;16.57;72.37
37892;BME280;45797;47.466;9.486;2022-10-16T06:45:00;95945.44;;;16.66;71.92
37892;BME280;45797;47.466;9.486;2022-10-16T06:50:02;95955.75;;;16.78;71.95
37892;BME280;45797;47.466;9.486;2022-10-16T06:55:04;95955.56;;;16.90;71.97
37892;BME280;45797;47.466;9.486;2022-10-16T07:00:05;95959.09;;;17.08;71.78
37892;BME280;45797;47.466;9.486;2022-10-16T07:05:06;95972.41;;;17.26;71.30
37892;BME280;45797;47.466;9.486;2022-10-16T07:10:16;95967.72;;;17.37;71.11
37892;BME280;45797;47.466;9.486;2022-10-16T07:15:16;95979.63;;;17.51;70.68
37892;BME280;45797;47.466;9.486;2022-10-16T07:20:33;95995.03;;;17.65;70.46
37892;BME280;45797;47.466;9.486;2022-10-16T07:25:41;95993.41;;;17.82;70.55
37892;BME280;45797;47.466;9.486;2022-10-16T07:30:43;95994.41;;;17.99;70.33
37892;BME280;45797;47.466;9.486;2022-10-16T07:35:54;95995.16;;;18.09;70.10
37892;BME280;45797;47.466;9.486;2022-10-16T07:45:59;96002.59;;;18.23;70.06
37892;BME280;45797;47.466;9.486;2022-10-16T07:51:03;96008.94;;;18.31;70.11
37892;BME280;45797;47.466;9.486;2022-10-16T07:56:06;96019.25;;;18.34;70.00
37892;BME280;45797;47.466;9.486;2022-10-16T08:01:13;96043.34;;;18.22;70.28
37892;BME280;45797;47.466;9.486;2022-10-16T08:06:17;96046.53;;;18.26;70.66
37892;BME280;45797;47.466;9.486;2022-10-16T08:11:18;96040.97;;;18.37;70.44
37892;BME280;45797;47.466;9.486;2022-10-16T08:16:20;96034.69;;;18.56;69.99
37892;BME280;45797;47.466;9.486;2022-10-16T08:21:28;96028.53;;;18.73;69.57
37892;BME280;45797;47.466;9.486;2022-10-16T08:26:35;96025.78;;;18.83;69.50
37892;BME280;45797;47.466;9.486;2022-10-16T08:31:50;96060.03;;;18.68;69.54
37892;BME280;45797;47.466;9.486;2022-10-16T08:37:04;96059.22;;;18.68;70.29
37892;BME280;45797;47.466;9.486;2022-10-16T08:47:24;96058.34;;;19.11;69.11
37892;BME280;45797;47.466;9.486;2022-10-16T08:52:44;96053.91;;;19.20;69.30
37892;BME280;45797;47.466;9.486;2022-10-16T08:57:45;96060.34;;;19.43;68.52
37892;BME280;45797;47.466;9.486;2022-10-16T09:14:15;96081.78;;;19.50;68.72
37892;BME280;45797;47.466;9.486;2022-10-16T09:25:20;96105.88;;;19.22;69.80
37892;BME280;45797;47.466;9.486;2022-10-16T09:30:21;96114.84;;;19.21;69.86
37892;BME280;45797;47.466;9.486;2022-10-16T09:35:47;96123.44;;;19.15;69.86
37892;BME280;45797;47.466;9.486;2022-10-16T09:40:49;96117.03;;;19.26;69.35
37892;BME280;45797;47.466;9.486;2022-10-16T09:51:43;96126.69;;;19.53;68.54
37892;BME280;45797;47.466;9.486;2022-10-16T09:56:44;96122.63;;;19.66;68.51
37892;BME280;45797;47.466;9.486;2022-10-16T10:01:55;96107.09;;;19.88;67.97
37892;BME280;45797;47.466;9.486;2022-10-16T10:06:56;96101.69;;;20.14;67.85
37892;BME280;45797;47.466;9.486;2022-10-16T10:11:58;96101.75;;;20.30;67.38
37892;BME280;45797;47.466;9.486;2022-10-16T10:17:25;96101.81;;;20.54;66.91
37892;BME280;45797;47.466;9.486;2022-10-16T10:22:29;96110.50;;;20.81;66.06
37892;BME280;45797;47.466;9.486;2022-10-16T10:54:50;96099.38;;;21.82;64.58
37892;BME280;45797;47.466;9.486;2022-10-16T11:05:38;96100.47;;;21.95;64.47
37892;BME280;45797;47.466;9.486;2022-10-16T11:15:57;96079.69;;;22.22;63.74
37892;BME280;45797;47.466;9.486;2022-10-16T11:21:04;96079.94;;;22.35;63.39
37892;BME280;45797;47.466;9.486;2022-10-16T11:26:28;96073.72;;;22.43;63.18
37892;BME280;45797;47.466;9.486;2022-10-16T11:31:44;96075.66;;;22.57;62.50
37892;BME280;45797;47.466;9.486;2022-10-16T11:37:14;96067.88;;;22.47;63.03
37892;BME280;45797;47.466;9.486;2022-10-16T11:42:29;96062.81;;;22.52;63.17
37892;BME280;45797;47.466;9.486;2022-10-16T11:53:13;96053.72;;;23.07;61.43
37892;BME280;45797;47.466;9.486;2022-10-16T11:58:32;96051.06;;;23.22;61.20
37892;BME280;45797;47.466;9.486;2022-10-16T12:04:19;96045.81;;;23.58;60.48
37892;BME280;45797;47.466;9.486;2022-10-16T12:09:27;96040.94;;;23.91;59.45
37892;BME280;45797;47.466;9.486;2022-10-16T12:14:40;96042.22;;;23.96;59.66
37892;BME280;45797;47.466;9.486;2022-10-16T12:19:41;96046.91;;;24.08;59.88
37892;BME280;45797;47.466;9.486;2022-10-16T12:24:44;96039.59;;;24.17;58.85
37892;BME280;45797;47.466;9.486;2022-10-16T12:29:46;96043.97;;;24.25;59.21
37892;BME280;45797;47.466;9.486;2022-10-16T12:34:57;96038.44;;;24.41;58.75
37892;BME280;45797;47.466;9.486;2022-10-16T12:39:59;96042.28;;;24.74;57.93
37892;BME280;45797;47.466;9.486;2022-10-16T12:50:41;96017.41;;;25.09;57.28
37892;BME280;45797;47.466;9.486;2022-10-16T12:55:52;96026.75;;;25.19;56.98
37892;BME280;45797;47.466;9.486;2022-10-16T13:01:23;96015.19;;;25.12;57.52
37892;BME280;45797;47.466;9.486;2022-10-16T13:06:42;96023.31;;;25.25;57.31
37892;BME280;45797;47.466;9.486;2022-10-16T13:23:27;96024.88;;;24.92;57.10
37892;BME280;45797;47.466;9.486;2022-10-16T13:28:32;96026.72;;;24.91;56.84
37892;BME280;45797;47.466;9.486;2022-10-16T13:33:39;96021.22;;;24.99;57.08
37892;BME280;45797;47.466;9.486;2022-10-16T13:38:41;96016.97;;;25.05;56.72
37892;BME280;45797;47.466;9.486;2022-10-16T13:43:45;96016.56;;;25.08;56.04
37892;BME280;45797;47.466;9.486;2022-10-16T13:49:17;96013.94;;;25.15;56.11
37892;BME280;45797;47.466;9.486;2022-10-16T13:54:20;96015.09;;;25.33;55.89
37892;BME280;45797;47.466;9.486;2022-10-16T13:59:26;96011.56;;;25.68;55.46
37892;BME280;45797;47.466;9.486;2022-10-16T14:04:39;96010.88;;;25.87;54.78
37892;BME280;45797;47.466;9.486;2022-10-16T14:09:49;96014.63;;;25.99;54.66
37892;BME280;45797;47.466;9.486;2022-10-16T14:14:52;96015.47;;;26.00;54.63
37892;BME280;45797;47.466;9.486;2022-10-16T14:19:55;96014.59;;;25.92;54.66
37892;BME280;45797;47.466;9.486;2022-10-16T14:24:58;96020.03;;;26.12;54.23
37892;BME280;45797;47.466;9.486;2022-10-16T14:30:16;96021.75;;;26.27;53.75
37892;BME280;45797;47.466;9.486;2022-10-16T14:40:30;96018.75;;;26.56;53.04
37892;BME280;45797;47.466;9.486;2022-10-16T14:45:35;96024.34;;;26.68;52.37
37892;BME280;45797;47.466;9.486;2022-10-16T14:50:35;96027.47;;;26.85;52.23
37892;BME280;45797;47.466;9.486;2022-10-16T14:55:36;96027.28;;;27.06;51.34
37892;BME280;45797;47.466;9.486;2022-10-16T15:00:36;96023.78;;;27.12;51.28
37892;BME280;45797;47.466;9.486;2022-10-16T15:05:36;96021.69;;;27.14;51.21
37892;BME280;45797;47.466;9.486;2022-10-16T15:10:43;96028.50;;;27.23;50.63
37892;BME280;45797;47.466;9.486;2022-10-16T15:15:46;96030.78;;;27.26;50.74
37892;BME280;45797;47.466;9.486;2022-10-16T15:20:49;96026.66;;;27.04;50.77
37892;BME280;45797;47.466;9.486;2022-10-16T15:25:52;96029.72;;;26.74;50.85
37892;BME280;45797;47.466;9.486;2022-10-16T15:30:56;96034.66;;;26.44;51.15
37892;BME280;45797;47.466;9.486;2022-10-16T15:35:56;96043.19;;;26.07;51.66
37892;BME280;45797;47.466;9.486;2022-10-16T15:41:13;96045.16;;;25.57;52.51
37892;BME280;45797;47.466;9.486;2022-10-16T15:46:17;96045.19;;;25.29;52.61
37892;BME280;45797;47.466;9.486;2022-10-16T15:51:18;96057.63;;;25.09;52.36
37892;BME280;45797;47.466;9.486;2022-10-16T15:56:23;96058.41;;;25.02;52.21
37892;BME280;45797;47.466;9.486;2022-10-16T16:01:27;96060.19;;;24.74;52.52
37892;BME280;45797;47.466;9.486;2022-10-16T16:06:29;96049.41;;;24.46;52.31
37892;BME280;45797;47.466;9.486;2022-10-16T16:11:30;96061.47;;;24.35;53.00
37892;BME280;45797;47.466;9.486;2022-10-16T16:16:33;96062.06;;;24.01;52.92
37892;BME280;45797;47.466;9.486;2022-10-16T16:21:39;96074.16;;;23.53;53.72
37892;BME280;45797;47.466;9.486;2022-10-16T16:26:50;96074.06;;;22.94;54.80
37892;BME280;45797;47.466;9.486;2022-10-16T16:31:50;96076.22;;;22.44;55.54
37892;BME280;45797;47.466;9.486;2022-10-16T16:36:57;96087.47;;;22.01;56.11
37892;BME280;45797;47.466;9.486;2022-10-16T16:42:02;96092.78;;;21.61;56.53
37892;BME280;45797;47.466;9.486;2022-10-16T16:47:05;96095.84;;;21.34;56.91
37892;BME280;45797;47.466;9.486;2022-10-16T16:52:07;96103.00;;;21.09;56.99
37892;BME280;45797;47.466;9.486;2022-10-16T16:57:26;96112.50;;;20.79;57.03
37892;BME280;45797;47.466;9.486;2022-10-16T17:02:25;96114.47;;;20.61;57.25
37892;BME280;45797;47.466;9.486;2022-10-16T17:07:25;96124.72;;;20.39;57.32
37892;BME280;45797;47.466;9.486;2022-10-16T17:12:42;96136.66;;;20.19;57.51
37892;BME280;45797;47.466;9.486;2022-10-16T17:17:43;96157.19;;;20.09;57.87
37892;BME280;45797;47.466;9.486;2022-10-16T17:22:43;96161.16;;;19.96;57.97
37892;BME280;45797;47.466;9.486;2022-10-16T17:27:51;96163.09;;;19.86;57.98
37892;BME280;45797;47.466;9.486;2022-10-16T17:33:01;96172.19;;;19.76;58.31
37892;BME280;45797;47.466;9.486;2022-10-16T17:38:02;96167.81;;;19.66;58.49
37892;BME280;45797;47.466;9.486;2022-10-16T17:43:11;96175.19;;;19.55;58.70
37892;BME280;45797;47.466;9.486;2022-10-16T17:48:30;96190.41;;;19.45;58.66
37892;BME280;45797;47.466;9.486;2022-10-16T17:53:31;96196.84;;;19.42;59.23
37892;BME280;45797;47.466;9.486;2022-10-16T17:58:31;96199.16;;;19.37;58.87
37892;BME280;45797;47.466;9.486;2022-10-16T18:03:38;96214.84;;;19.30;59.17
37892;BME280;45797;47.466;9.486;2022-10-16T18:08:56;96215.25;;;19.18;59.37
37892;BME280;45797;47.466;9.486;2022-10-16T18:14:12;96236.94;;;19.13;59.62
37892;BME280;45797;47.466;9.486;2022-10-16T18:19:37;96241.91;;;19.08;59.72
37892;BME280;45797;47.466;9.486;2022-10-16T18:24:38;96243.88;;;19.06;59.95
37892;BME280;45797;47.466;9.486;2022-10-16T18:29:40;96239.00;;;19.01;60.63
37892;BME280;45797;47.466;9.486;2022-10-16T18:34:40;96245.06;;;18.94;60.07
37892;BME280;45797;47.466;9.486;2022-10-16T18:45:43;96252.44;;;18.82;60.90
37892;BME280;45797;47.466;9.486;2022-10-16T18:50:54;96249.25;;;18.78;60.44
37892;BME280;45797;47.466;9.486;2022-10-16T18:55:54;96250.50;;;18.74;60.84
37892;BME280;45797;47.466;9.486;2022-10-16T19:01:13;96264.41;;;18.68;60.81
37892;BME280;45797;47.466;9.486;2022-10-16T19:06:15;96272.63;;;18.65;61.13
37892;BME280;45797;47.466;9.486;2022-10-16T19:11:39;96273.50;;;18.56;61.37
37892;BME280;45797;47.466;9.486;2022-10-16T19:16:51;96286.06;;;18.54;61.51
37892;BME280;45797;47.466;9.486;2022-10-16T19:22:07;96285.69;;;18.49;61.51
37892;BME280;45797;47.466;9.486;2022-10-16T19:27:22;96280.13;;;18.42;61.88
37892;BME280;45797;47.466;9.486;2022-10-16T19:32:24;96283.09;;;18.39;62.23
37892;BME280;45797;47.466;9.486;2022-10-16T19:37:25;96292.31;;;18.35;62.57
37892;BME280;45797;47.466;9.486;2022-10-16T19:42:26;96291.38;;;18.26;62.49
37892;BME280;45797;47.466;9.486;2022-10-16T19:47:30;96298.25;;;18.19;62.79
37892;BME280;45797;47.466;9.486;2022-10-16T19:52:40;96307.19;;;18.09;63.32
37892;BME280;45797;47.466;9.486;2022-10-16T19:58:00;96319.78;;;17.97;63.61
37892;BME280;45797;47.466;9.486;2022-10-16T20:03:08;96323.97;;;17.90;63.85
37892;BME280;45797;47.466;9.486;2022-10-16T20:08:09;96333.19;;;17.86;63.99
37892;BME280;45797;47.466;9.486;2022-10-16T20:13:20;96332.78;;;17.81;64.36
37892;BME280;45797;47.466;9.486;2022-10-16T20:18:25;96319.41;;;17.82;64.43
37892;BME280;45797;47.466;9.486;2022-10-16T20:23:35;96328.75;;;17.77;64.50
37892;BME280;45797;47.466;9.486;2022-10-16T20:28:45;96337.25;;;17.70;64.43
37892;BME280;45797;47.466;9.486;2022-10-16T20:33:45;96340.47;;;17.64;64.75
37892;BME280;45797;47.466;9.486;2022-10-16T20:38:46;96339.03;;;17.60;65.20
37892;BME280;45797;47.466;9.486;2022-10-16T20:43:49;96350.06;;;17.56;65.67
37892;BME280;45797;47.466;9.486;2022-10-16T20:48:50;96349.66;;;17.51;65.34
37892;BME280;45797;47.466;9.486;2022-10-16T20:54:02;96342.13;;;17.46;65.44
37892;BME280;45797;47.466;9.486;2022-10-16T20:59:14;96343.94;;;17.36;65.69
37892;BME280;45797;47.466;9.486;2022-10-16T21:04:24;96344.63;;;17.28;65.46
37892;BME280;45797;47.466;9.486;2022-10-16T21:09:23;96351.72;;;17.18;66.74
37892;BME280;45797;47.466;9.486;2022-10-16T21:14:23;96356.72;;;17.11;66.59
37892;BME280;45797;47.466;9.486;2022-10-16T21:19:23;96355.47;;;17.06;66.86
37892;BME280;45797;47.466;9.486;2022-10-16T21:24:25;96359.06;;;17.05;67.19
37892;BME280;45797;47.466;9.486;2022-10-16T21:29:35;96357.81;;;16.99;66.87
37892;BME280;45797;47.466;9.486;2022-10-16T21:34:35;96376.03;;;16.93;66.76
37892;BME280;45797;47.466;9.486;2022-10-16T21:39:37;96381.63;;;16.90;67.19
37892;BME280;45797;47.466;9.486;2022-10-16T21:44:46;96382.13;;;16.83;67.09
37892;BME280;45797;47.466;9.486;2022-10-16T21:49:56;96392.16;;;16.80;67.00
37892;BME280;45797;47.466;9.486;2022-10-16T21:55:05;96388.94;;;16.76;66.99
37892;BME280;45797;47.466;9.486;2022-10-16T22:00:14;96383.53;;;16.78;67.16
37892;BME280;45797;47.466;9.486;2022-10-16T22:05:15;96386.28;;;16.76;66.89
37892;BME280;45797;47.466;9.486;2022-10-16T22:10:19;96392.69;;;16.74;67.31
37892;BME280;45797;47.466;9.486;2022-10-16T22:15:19;96391.28;;;16.70;67.67
37892;BME280;45797;47.466;9.486;2022-10-16T22:20:19;96394.09;;;16.68;67.19
37892;BME280;45797;47.466;9.486;2022-10-16T22:25:20;96398.50;;;16.68;67.21
37892;BME280;45797;47.466;9.486;2022-10-16T22:30:24;96393.59;;;16.63;66.93
37892;BME280;45797;47.466;9.486;2022-10-16T22:35:24;96394.84;;;16.59;67.07
37892;BME280;45797;47.466;9.486;2022-10-16T22:40:24;96396.06;;;16.55;67.27
37892;BME280;45797;47.466;9.486;2022-10-16T22:45:24;96395.75;;;16.48;67.27
37892;BME280;45797;47.466;9.486;2022-10-16T22:50:26;96405.63;;;16.46;67.17
37892;BME280;45797;47.466;9.486;2022-10-16T22:55:35;96401.84;;;16.39;67.28
37892;BME280;45797;47.466;9.486;2022-10-16T23:00:36;96401.72;;;16.41;67.33
37892;BME280;45797;47.466;9.486;2022-10-16T23:05:42;96405.56;;;16.37;67.23
37892;BME280;45797;47.466;9.486;2022-10-16T23:10:45;96397.22;;;16.32;67.76
37892;BME280;45797;47.466;9.486;2022-10-16T23:15:45;96401.66;;;16.31;67.92
37892;BME280;45797;47.466;9.486;2022-10-16T23:20:44;96405.00;;;16.33;67.87
37892;BME280;45797;47.466;9.486;2022-10-16T23:25:46;96423.66;;;16.32;67.30
37892;BME280;45797;47.466;9.486;2022-10-16T23:30:55;96417.63;;;16.29;67.78
37892;BME280;45797;47.466;9.486;2022-10-16T23:35:54;96422.81;;;16.31;68.23
37892;BME280;45797;47.466;9.486;2022-10-16T23:41:04;96412.25;;;16.31;68.05
37892;BME280;45797;47.466;9.486;2022-10-16T23:46:06;96417.53;;;16.31;68.45
37892;BME280;45797;47.466;9.486;2022-10-16T23:51:09;96409.84;;;16.28;68.36
37892;BME280;45797;47.466;9.486;2022-10-16T23:56:10;96409.13;;;16.26;68.20
